sensor_id;sensor_type;location;lat;lon;timestamp;pressure;altitude;pressure_sealevel;temperature;humidity
36380;BME280;22411;53.016;18.632;2023-04-09T00:00:40;101574.50;;;8.27;100.00
36380;BME280;22411;53.016;18.632;2023-04-09T00:03:26;101578.13;;;8.23;100.00
36380;BME280;22411;53.016;18.632;2023-04-09T00:05:52;101572.06;;;8.24;100.00
36380;BME280;22411;53.016;18.632;2023-04-09T00:08:20;101572.25;;;8.19;100.00
36380;BME280;22411;53.016;18.632;2023-04-09T00:10:49;101572.16;;;8.21;100.00
36380;BME280;22411;53.016;18.632;2023-04-09T00:13:19;101574.81;;;8.19;100.00
36380;BME280;22411;53.016;18.632;2023-04-09T00:15:45;101581.59;;;8.22;100.00
36380;BME280;22411;53.016;18.632;2023-04-09T00:18:12;101579.09;;;8.20;100.00
36380;BME280;22411;53.016;18.632;2023-04-09T00:20:38;101584.19;;;8.22;100.00
36380;BME280;22411;53.016;18.632;2023-04-09T00:23:04;101578.16;;;8.21;100.00
36380;BME280;22411;53.016;18.632;2023-04-09T00:25:30;101579.84;;;8.22;100.00
36380;BME280;22411;53.016;18.632;2023-04-09T00:27:57;101580.75;;;8.21;100.00
36380;BME280;22411;53.016;18.632;2023-04-09T00:30:23;101578.31;;;8.18;100.00
36380;BME280;22411;53.016;18.632;2023-04-09T00:32:50;101569.78;;;8.16;100.00
36380;BME280;22411;53.016;18.632;2023-04-09T00:35:16;101581.84;;;8.16;100.00
36380;BME280;22411;53.016;18.632;2023-04-09T00:37:42;101581.09;;;8.13;100.00
36380;BME280;22411;53.016;18.632;2023-04-09T00:40:08;101571.53;;;8.16;100.00
36380;BME280;22411;53.016;18.632;2023-04-09T00:42:36;101570.69;;;8.15;100.00
36380;BME280;22411;53.016;18.632;2023-04-09T00:45:04;101571.53;;;8.16;100.00
36380;BME280;22411;53.016;18.632;2023-04-09T00:47:31;101579.28;;;8.16;100.00
36380;BME280;22411;53.016;18.632;2023-04-09T00:49:59;101573.16;;;8.18;100.00
36380;BME280;22411;53.016;18.632;2023-04-09T00:52:26;101578.31;;;8.18;100.00
36380;BME280;22411;53.016;18.632;2023-04-09T00:54:55;101574.81;;;8.19;100.00
36380;BME280;22411;53.016;18.632;2023-04-09T00:57:22;101572.25;;;8.19;100.00
36380;BME280;22411;53.016;18.632;2023-04-09T00:59:47;101572.34;;;8.16;100.00
36380;BME280;22411;53.016;18.632;2023-04-09T01:02:14;101574.38;;;8.09;100.00
36380;BME280;22411;53.016;18.632;2023-04-09T01:04:41;101581.19;;;8.10;100.00
36380;BME280;22411;53.016;18.632;2023-04-09T01:13:07;101584.56;;;8.12;100.00
36380;BME280;22411;53.016;18.632;2023-04-09T01:15:55;101585.72;;;8.05;100.00
36380;BME280;22411;53.016;18.632;2023-04-09T01:21:51;101579.31;;;7.94;100.00
36380;BME280;22411;53.016;18.632;2023-04-09T01:24:41;101573.38;;;7.92;100.00
36380;BME280;22411;53.016;18.632;2023-04-09T01:27:33;101583.53;;;7.96;100.00
36380;BME280;22411;53.016;18.632;2023-04-09T01:30:06;101579.19;;;7.97;100.00
36380;BME280;22411;53.016;18.632;2023-04-09T01:32:36;101587.06;;;7.94;100.00
36380;BME280;22411;53.016;18.632;2023-04-09T01:35:05;101584.47;;;7.94;100.00
36380;BME280;22411;53.016;18.632;2023-04-09T01:37:32;101582.88;;;7.91;100.00
36380;BME280;22411;53.016;18.632;2023-04-09T01:40:00;101579.66;;;7.84;100.00
36380;BME280;22411;53.016;18.632;2023-04-09T01:42:27;101579.81;;;7.81;100.00
36380;BME280;22411;53.016;18.632;2023-04-09T01:44:54;101586.91;;;7.76;100.00
36380;BME280;22411;53.016;18.632;2023-04-09T01:47:20;101583.59;;;7.73;100.00
36380;BME280;22411;53.016;18.632;2023-04-09T01:49:48;101578.66;;;7.67;100.00
36380;BME280;22411;53.016;18.632;2023-04-09T01:52:14;101579.63;;;7.64;100.00
36380;BME280;22411;53.016;18.632;2023-04-09T01:54:41;101577.16;;;7.61;100.00
36380;BME280;22411;53.016;18.632;2023-04-09T01:57:07;101582.41;;;7.59;100.00
36380;BME280;22411;53.016;18.632;2023-04-09T01:59:34;101587.09;;;7.48;100.00
36380;BME280;22411;53.016;18.632;2023-04-09T02:02:12;101582.34;;;7.38;100.00
36380;BME280;22411;53.016;18.632;2023-04-09T02:04:46;101580.09;;;7.30;100.00
36380;BME280;22411;53.016;18.632;2023-04-09T02:07:26;101582.16;;;7.20;100.00
36380;BME280;22411;53.016;18.632;2023-04-09T02:09:56;101577.91;;;7.19;100.00
36380;BME280;22411;53.016;18.632;2023-04-09T02:12:24;101572.06;;;7.14;100.00
36380;BME280;22411;53.016;18.632;2023-04-09T02:14:51;101571.41;;;7.09;100.00
36380;BME280;22411;53.016;18.632;2023-04-09T02:17:18;101562.78;;;7.10;100.00
36380;BME280;22411;53.016;18.632;2023-04-09T02:19:46;101572.34;;;7.06;100.00
36380;BME280;22411;53.016;18.632;2023-04-09T02:22:13;101568.25;;;7.01;100.00
36380;BME280;22411;53.016;18.632;2023-04-09T02:24:45;101564.75;;;7.03;100.00
36380;BME280;22411;53.016;18.632;2023-04-09T02:27:10;101570.38;;;6.90;100.00
36380;BME280;22411;53.016;18.632;2023-04-09T02:29:39;101571.41;;;6.86;100.00
36380;BME280;22411;53.016;18.632;2023-04-09T02:32:06;101564.72;;;6.80;100.00
36380;BME280;22411;53.016;18.632;2023-04-09T02:34:32;101564.25;;;6.69;100.00
36380;BME280;22411;53.016;18.632;2023-04-09T02:36:58;101564.59;;;6.60;100.00
36380;BME280;22411;53.016;18.632;2023-04-09T02:39:24;101559.78;;;6.50;100.00
36380;BME280;22411;53.016;18.632;2023-04-09T02:41:51;101556.81;;;6.36;100.00
36380;BME280;22411;53.016;18.632;2023-04-09T02:44:18;101560.44;;;6.31;100.00
36380;BME280;22411;53.016;18.632;2023-04-09T02:46:45;101555.59;;;6.21;100.00
36380;BME280;22411;53.016;18.632;2023-04-09T02:49:12;101553.91;;;6.20;100.00
36380;BME280;22411;53.016;18.632;2023-04-09T02:51:38;101558.53;;;6.11;100.00
36380;BME280;22411;53.016;18.632;2023-04-09T02:54:04;101549.25;;;6.07;100.00
36380;BME280;22411;53.016;18.632;2023-04-09T02:56:31;101548.28;;;6.09;100.00
36380;BME280;22411;53.016;18.632;2023-04-09T02:58:58;101551.75;;;6.08;100.00
36380;BME280;22411;53.016;18.632;2023-04-09T03:01:23;101556.78;;;6.11;100.00
36380;BME280;22411;53.016;18.632;2023-04-09T03:03:50;101558.66;;;6.08;100.00
36380;BME280;22411;53.016;18.632;2023-04-09T03:06:16;101560.25;;;6.10;100.00
36380;BME280;22411;53.016;18.632;2023-04-09T03:08:44;101556.31;;;6.00;100.00
36380;BME280;22411;53.016;18.632;2023-04-09T03:11:10;101565.69;;;6.01;100.00
36380;BME280;22411;53.016;18.632;2023-04-09T03:13:36;101557.97;;;6.01;100.00
36380;BME280;22411;53.016;18.632;2023-04-09T03:16:02;101554.69;;;5.97;100.00
36380;BME280;22411;53.016;18.632;2023-04-09T03:18:28;101556.50;;;5.94;100.00
36380;BME280;22411;53.016;18.632;2023-04-09T03:20:55;101553.88;;;5.95;100.00
36380;BME280;22411;53.016;18.632;2023-04-09T03:23:21;101559.00;;;5.97;100.00
36380;BME280;22411;53.016;18.632;2023-04-09T03:25:47;101564.09;;;5.98;100.00
36380;BME280;22411;53.016;18.632;2023-04-09T03:28:14;101549.44;;;6.00;100.00
36380;BME280;22411;53.016;18.632;2023-04-09T03:30:40;101545.13;;;6.01;100.00
36380;BME280;22411;53.016;18.632;2023-04-09T03:33:06;101543.75;;;5.89;100.00
36380;BME280;22411;53.016;18.632;2023-04-09T03:35:33;101543.81;;;5.88;100.00
36380;BME280;22411;53.016;18.632;2023-04-09T03:37:59;101559.41;;;5.83;100.00
36380;BME280;22411;53.016;18.632;2023-04-09T03:40:25;101559.34;;;5.85;100.00
36380;BME280;22411;53.016;18.632;2023-04-09T03:42:51;101553.28;;;5.87;100.00
36380;BME280;22411;53.016;18.632;2023-04-09T03:45:17;101558.41;;;5.87;100.00
36380;BME280;22411;53.016;18.632;2023-04-09T03:47:44;101557.78;;;5.81;100.00
36380;BME280;22411;53.016;18.632;2023-04-09T03:50:10;101554.31;;;5.82;100.00
36380;BME280;22411;53.016;18.632;2023-04-09T03:52:37;101561.06;;;5.84;100.00
36380;BME280;22411;53.016;18.632;2023-04-09T03:55:03;101561.19;;;5.81;100.00
36380;BME280;22411;53.016;18.632;2023-04-09T03:57:30;101561.28;;;5.78;100.00
36380;BME280;22411;53.016;18.632;2023-04-09T03:59:56;101557.72;;;5.82;100.00
36380;BME280;22411;53.016;18.632;2023-04-09T04:02:22;101566.22;;;5.84;100.00
36380;BME280;22411;53.016;18.632;2023-04-09T04:04:51;101555.94;;;5.84;100.00
36380;BME280;22411;53.016;18.632;2023-04-09T04:07:18;101555.72;;;5.92;100.00
36380;BME280;22411;53.016;18.632;2023-04-09T04:09:44;101562.56;;;5.93;100.00
36380;BME280;22411;53.016;18.632;2023-04-09T04:12:10;101562.66;;;5.88;100.00
36380;BME280;22411;53.016;18.632;2023-04-09T04:14:36;101558.34;;;5.89;100.00
36380;BME280;22411;53.016;18.632;2023-04-09T04:17:02;101550.75;;;5.86;100.00
36380;BME280;22411;53.016;18.632;2023-04-09T04:19:29;101552.56;;;5.82;100.00
36380;BME280;22411;53.016;18.632;2023-04-09T04:21:55;101551.81;;;5.78;100.00
36380;BME280;22411;53.016;18.632;2023-04-09T04:24:21;101547.66;;;5.74;100.00
36380;BME280;22411;53.016;18.632;2023-04-09T04:26:47;101544.22;;;5.75;100.00
36380;BME280;22411;53.016;18.632;2023-04-09T04:29:13;101544.25;;;5.74;100.00
36380;BME280;22411;53.016;18.632;2023-04-09T04:31:39;101537.34;;;5.76;100.00
36380;BME280;22411;53.016;18.632;2023-04-09T04:34:05;101541.38;;;5.83;100.00
36380;BME280;22411;53.016;18.632;2023-04-09T04:36:31;101547.50;;;5.81;100.00
36380;BME280;22411;53.016;18.632;2023-04-09T04:38:57;101541.31;;;5.86;100.00
36380;BME280;22411;53.016;18.632;2023-04-09T04:41:23;101548.06;;;5.89;100.00
36380;BME280;22411;53.016;18.632;2023-04-09T04:43:49;101548.00;;;5.90;100.00
36380;BME280;22411;53.016;18.632;2023-04-09T04:46:15;101553.28;;;5.87;100.00
36380;BME280;22411;53.016;18.632;2023-04-09T04:48:42;101547.22;;;5.88;100.00
36380;BME280;22411;53.016;18.632;2023-04-09T04:51:09;101556.63;;;5.89;100.00
36380;BME280;22411;53.016;18.632;2023-04-09T04:53:35;101563.31;;;5.96;100.00
36380;BME280;22411;53.016;18.632;2023-04-09T04:56:06;101562.47;;;5.96;100.00
36380;BME280;22411;53.016;18.632;2023-04-09T04:58:31;101561.44;;;6.01;100.00
36380;BME280;22411;53.016;18.632;2023-04-09T05:00:58;101570.72;;;6.06;100.00
36380;BME280;22411;53.016;18.632;2023-04-09T05:03:25;101576.66;;;6.08;100.00
36380;BME280;22411;53.016;18.632;2023-04-09T05:05:51;101570.47;;;6.13;100.00
36380;BME280;22411;53.016;18.632;2023-04-09T05:08:18;101578.03;;;6.18;100.00
36380;BME280;22411;53.016;18.632;2023-04-09T05:10:45;101573.47;;;6.26;100.00
36380;BME280;22411;53.016;18.632;2023-04-09T05:13:11;101576.72;;;6.31;100.00
36380;BME280;22411;53.016;18.632;2023-04-09T05:15:38;101577.56;;;6.32;100.00
36380;BME280;22411;53.016;18.632;2023-04-09T05:18:06;101574.91;;;6.35;100.00
36380;BME280;22411;53.016;18.632;2023-04-09T05:20:33;101576.53;;;6.37;100.00
36380;BME280;22411;53.016;18.632;2023-04-09T05:22:59;101581.53;;;6.42;100.00
36380;BME280;22411;53.016;18.632;2023-04-09T05:25:29;101584.09;;;6.42;100.00
36380;BME280;22411;53.016;18.632;2023-04-09T05:27:56;101577.19;;;6.44;100.00
36380;BME280;22411;53.016;18.632;2023-04-09T05:30:22;101582.31;;;6.44;100.00
36380;BME280;22411;53.016;18.632;2023-04-09T05:32:48;101588.19;;;6.47;100.00
36380;BME280;22411;53.016;18.632;2023-04-09T05:35:15;101588.19;;;6.47;100.00
36380;BME280;22411;53.016;18.632;2023-04-09T05:37:40;101602.56;;;6.54;100.00
36380;BME280;22411;53.016;18.632;2023-04-09T05:40:07;101603.06;;;6.64;100.00
36380;BME280;22411;53.016;18.632;2023-04-09T05:42:33;101596.88;;;6.70;100.00
36380;BME280;22411;53.016;18.632;2023-04-09T05:44:59;101601.91;;;6.73;100.00
36380;BME280;22411;53.016;18.632;2023-04-09T05:47:25;101601.97;;;6.71;100.00
36380;BME280;22411;53.016;18.632;2023-04-09T05:49:52;101600.16;;;6.75;100.00
36380;BME280;22411;53.016;18.632;2023-04-09T05:52:18;101594.09;;;6.76;100.00
36380;BME280;22411;53.016;18.632;2023-04-09T05:54:44;101592.22;;;6.79;100.00
36380;BME280;22411;53.016;18.632;2023-04-09T05:57:10;101585.41;;;6.78;100.00
36380;BME280;22411;53.016;18.632;2023-04-09T05:59:36;101585.53;;;6.75;100.00
36380;BME280;22411;53.016;18.632;2023-04-09T06:02:02;101592.41;;;6.75;100.00
36380;BME280;22411;53.016;18.632;2023-04-09T06:04:28;101589.56;;;6.82;100.00
36380;BME280;22411;53.016;18.632;2023-04-09T06:06:54;101600.69;;;6.83;100.00
36380;BME280;22411;53.016;18.632;2023-04-09T06:09:25;101597.22;;;6.84;100.00
36380;BME280;22411;53.016;18.632;2023-04-09T06:11:52;101604.69;;;6.92;100.00
36380;BME280;22411;53.016;18.632;2023-04-09T06:14:18;101601.06;;;6.97;100.00
36380;BME280;22411;53.016;18.632;2023-04-09T06:16:45;101610.38;;;7.01;100.00
36380;BME280;22411;53.016;18.632;2023-04-09T06:19:11;101618.72;;;7.08;100.00
36380;BME280;22411;53.016;18.632;2023-04-09T06:21:37;101618.66;;;7.10;100.00
36380;BME280;22411;53.016;18.632;2023-04-09T06:24:03;101619.38;;;7.13;100.00
36380;BME280;22411;53.016;18.632;2023-04-09T06:26:30;101624.38;;;7.18;100.00
36380;BME280;22411;53.016;18.632;2023-04-09T06:28:56;101624.31;;;7.19;100.00
36380;BME280;22411;53.016;18.632;2023-04-09T06:31:22;101636.47;;;7.16;100.00
36380;BME280;22411;53.016;18.632;2023-04-09T06:33:48;101632.81;;;7.21;100.00
36380;BME280;22411;53.016;18.632;2023-04-09T06:36:15;101638.63;;;7.28;100.00
36380;BME280;22411;53.016;18.632;2023-04-09T06:38:41;101639.22;;;7.34;100.00
36380;BME280;22411;53.016;18.632;2023-04-09T06:41:07;101633.00;;;7.40;100.00
36380;BME280;22411;53.016;18.632;2023-04-09T06:43:33;101641.50;;;7.42;100.00
36380;BME280;22411;53.016;18.632;2023-04-09T06:46:00;101640.75;;;7.40;100.00
36380;BME280;22411;53.016;18.632;2023-04-09T06:48:28;101644.06;;;7.44;100.00
36380;BME280;22411;53.016;18.632;2023-04-09T06:50:54;101644.72;;;7.49;100.00
36380;BME280;22411;53.016;18.632;2023-04-09T06:53:21;101645.31;;;7.55;100.00
36380;BME280;22411;53.016;18.632;2023-04-09T06:55:48;101653.78;;;7.59;100.00
36380;BME280;22411;53.016;18.632;2023-04-09T06:58:14;101656.19;;;7.64;100.00
36380;BME280;22411;53.016;18.632;2023-04-09T07:00:41;101660.41;;;7.66;100.00
36380;BME280;22411;53.016;18.632;2023-04-09T07:03:07;101662.75;;;7.72;100.00
36380;BME280;22411;53.016;18.632;2023-04-09T07:05:34;101666.34;;;7.68;100.00
36380;BME280;22411;53.016;18.632;2023-04-09T07:08:00;101670.72;;;7.66;100.00
36380;BME280;22411;53.016;18.632;2023-04-09T07:10:28;101668.16;;;7.66;100.00
36380;BME280;22411;53.016;18.632;2023-04-09T07:12:54;101676.72;;;7.67;100.00
36380;BME280;22411;53.016;18.632;2023-04-09T07:15:21;101675.88;;;7.66;100.00
36380;BME280;22411;53.016;18.632;2023-04-09T07:17:47;101677.50;;;7.69;100.00
36380;BME280;22411;53.016;18.632;2023-04-09T07:20:13;101677.41;;;7.72;100.00
36380;BME280;22411;53.016;18.632;2023-04-09T07:22:39;101678.13;;;7.75;100.00
36380;BME280;22411;53.016;18.632;2023-04-09T07:25:06;101679.63;;;7.81;100.00
36380;BME280;22411;53.016;18.632;2023-04-09T07:27:32;101682.97;;;7.83;100.00
36380;BME280;22411;53.016;18.632;2023-04-09T07:29:58;101681.31;;;7.82;100.00
36380;BME280;22411;53.016;18.632;2023-04-09T07:32:26;101675.13;;;7.86;100.00
36380;BME280;22411;53.016;18.632;2023-04-09T07:34:57;101675.91;;;7.88;100.00
36380;BME280;22411;53.016;18.632;2023-04-09T07:37:24;101677.50;;;7.91;100.00
36380;BME280;22411;53.016;18.632;2023-04-09T07:39:51;101674.94;;;7.91;100.00
36380;BME280;22411;53.016;18.632;2023-04-09T07:42:18;101680.97;;;7.91;100.00
36380;BME280;22411;53.016;18.632;2023-04-09T07:44:44;101684.25;;;7.95;100.00
36380;BME280;22411;53.016;18.632;2023-04-09T07:47:10;101679.91;;;7.95;100.00
36380;BME280;22411;53.016;18.632;2023-04-09T07:49:37;101685.88;;;7.97;100.00
36380;BME280;22411;53.016;18.632;2023-04-09T07:52:05;101681.56;;;7.98;100.00
36380;BME280;22411;53.016;18.632;2023-04-09T07:54:32;101678.84;;;8.01;100.00
36380;BME280;22411;53.016;18.632;2023-04-09T07:56:59;101680.66;;;7.99;100.00
36380;BME280;22411;53.016;18.632;2023-04-09T07:59:29;101683.78;;;8.07;100.00
36380;BME280;22411;53.016;18.632;2023-04-09T08:01:56;101672.16;;;8.17;100.00
36380;BME280;22411;53.016;18.632;2023-04-09T08:04:23;101676.31;;;8.21;100.00
36380;BME280;22411;53.016;18.632;2023-04-09T08:06:48;101675.19;;;8.28;100.00
36380;BME280;22411;53.016;18.632;2023-04-09T08:09:16;101677.69;;;8.30;100.00
36380;BME280;22411;53.016;18.632;2023-04-09T08:11:43;101678.66;;;8.27;100.00
36380;BME280;22411;53.016;18.632;2023-04-09T08:14:14;101678.53;;;8.30;100.00
36380;BME280;22411;53.016;18.632;2023-04-09T08:16:45;101674.13;;;8.32;100.00
36380;BME280;22411;53.016;18.632;2023-04-09T08:19:12;101678.13;;;8.41;100.00
36380;BME280;22411;53.016;18.632;2023-04-09T08:21:40;101676.97;;;8.48;100.00
36380;BME280;22411;53.016;18.632;2023-04-09T08:24:11;101673.28;;;8.54;100.00
36380;BME280;22411;53.016;18.632;2023-04-09T08:26:38;101668.19;;;8.52;100.00
36380;BME280;22411;53.016;18.632;2023-04-09T08:29:05;101667.91;;;8.60;100.00
36380;BME280;22411;53.016;18.632;2023-04-09T08:31:32;101673.56;;;8.68;100.00
36380;BME280;22411;53.016;18.632;2023-04-09T08:33:59;101663.88;;;8.73;100.00
36380;BME280;22411;53.016;18.632;2023-04-09T08:36:26;101670.34;;;8.83;100.00
36380;BME280;22411;53.016;18.632;2023-04-09T08:38:52;101672.66;;;8.89;100.00
36380;BME280;22411;53.016;18.632;2023-04-09T08:41:22;101679.25;;;8.97;100.00
36380;BME280;22411;53.016;18.632;2023-04-09T08:43:54;101674.31;;;9.11;100.00
36380;BME280;22411;53.016;18.632;2023-04-09T08:46:21;101679.22;;;9.17;100.00
36380;BME280;22411;53.016;18.632;2023-04-09T08:48:49;101678.06;;;9.24;100.00
36380;BME280;22411;53.016;18.632;2023-04-09T08:51:21;101671.88;;;9.27;100.00
36380;BME280;22411;53.016;18.632;2023-04-09T08:53:56;101680.25;;;9.33;100.00
36380;BME280;22411;53.016;18.632;2023-04-09T08:56:24;101674.72;;;9.41;100.00
36380;BME280;22411;53.016;18.632;2023-04-09T08:58:51;101676.06;;;9.50;100.00
36380;BME280;22411;53.016;18.632;2023-04-09T09:01:19;101673.66;;;9.64;100.00
36380;BME280;22411;53.016;18.632;2023-04-09T09:03:53;101680.88;;;9.76;100.00
36380;BME280;22411;53.016;18.632;2023-04-09T09:06:23;101674.56;;;9.82;100.00
36380;BME280;22411;53.016;18.632;2023-04-09T09:09:04;101677.28;;;9.41;100.00
36380;BME280;22411;53.016;18.632;2023-04-09T09:11:35;101674.84;;;9.38;100.00
36380;BME280;22411;53.016;18.632;2023-04-09T09:14:11;101672.75;;;9.46;100.00
36380;BME280;22411;53.016;18.632;2023-04-09T09:16:40;101676.19;;;9.47;100.00
36380;BME280;22411;53.016;18.632;2023-04-09T09:19:28;101689.13;;;9.65;100.00
36380;BME280;22411;53.016;18.632;2023-04-09T09:22:05;101685.91;;;9.79;100.00
36380;BME280;22411;53.016;18.632;2023-04-09T09:24:48;101680.78;;;9.97;100.00
36380;BME280;22411;53.016;18.632;2023-04-09T09:27:34;101693.03;;;9.93;100.00
36380;BME280;22411;53.016;18.632;2023-04-09T09:30:08;101696.56;;;10.09;100.00
36380;BME280;22411;53.016;18.632;2023-04-09T09:32:50;101701.06;;;10.25;100.00
36380;BME280;22411;53.016;18.632;2023-04-09T09:35:17;101701.59;;;10.48;100.00
36380;BME280;22411;53.016;18.632;2023-04-09T09:37:43;101697.88;;;10.54;100.00
36380;BME280;22411;53.016;18.632;2023-04-09T09:40:10;101703.38;;;10.65;100.00
36380;BME280;22411;53.016;18.632;2023-04-09T09:42:53;101698.13;;;10.67;100.00
36380;BME280;22411;53.016;18.632;2023-04-09T09:45:20;101708.84;;;10.59;100.00
36380;BME280;22411;53.016;18.632;2023-04-09T09:47:47;101704.75;;;10.55;100.00
36380;BME280;22411;53.016;18.632;2023-04-09T09:50:14;101698.13;;;10.50;100.00
36380;BME280;22411;53.016;18.632;2023-04-09T09:52:43;101702.69;;;10.44;100.00
36380;BME280;22411;53.016;18.632;2023-04-09T09:55:12;101701.00;;;10.43;100.00
36380;BME280;22411;53.016;18.632;2023-04-09T09:57:43;101699.25;;;10.44;100.00
36380;BME280;22411;53.016;18.632;2023-04-09T10:00:12;101690.09;;;10.54;100.00
36380;BME280;22411;53.016;18.632;2023-04-09T10:02:56;101693.47;;;10.56;100.00
36380;BME280;22411;53.016;18.632;2023-04-09T10:05:24;101685.59;;;10.58;100.00
36380;BME280;22411;53.016;18.632;2023-04-09T10:07:57;101683.31;;;10.69;100.00
36380;BME280;22411;53.016;18.632;2023-04-09T10:10:25;101690.63;;;10.78;100.00
36380;BME280;22411;53.016;18.632;2023-04-09T10:12:52;101680.84;;;11.00;100.00
36380;BME280;22411;53.016;18.632;2023-04-09T10:15:18;101681.94;;;11.30;100.00
36380;BME280;22411;53.016;18.632;2023-04-09T10:17:45;101685.66;;;11.57;100.00
36380;BME280;22411;53.016;18.632;2023-04-09T10:20:18;101683.66;;;11.94;100.00
36380;BME280;22411;53.016;18.632;2023-04-09T10:22:48;101687.09;;;12.10;100.00
36380;BME280;22411;53.016;18.632;2023-04-09T10:25:17;101692.34;;;12.24;100.00
36380;BME280;22411;53.016;18.632;2023-04-09T10:27:43;101694.91;;;12.40;100.00
36380;BME280;22411;53.016;18.632;2023-04-09T10:30:33;101698.00;;;12.47;100.00
36380;BME280;22411;53.016;18.632;2023-04-09T10:33:27;101693.50;;;12.35;100.00
36380;BME280;22411;53.016;18.632;2023-04-09T10:35:59;101696.28;;;12.32;100.00
36380;BME280;22411;53.016;18.632;2023-04-09T10:38:39;101695.94;;;12.22;100.00
36380;BME280;22411;53.016;18.632;2023-04-09T10:41:14;101699.94;;;12.13;100.00
36380;BME280;22411;53.016;18.632;2023-04-09T10:43:42;101697.38;;;12.12;100.00
36380;BME280;22411;53.016;18.632;2023-04-09T10:46:25;101703.16;;;12.17;100.00
36380;BME280;22411;53.016;18.632;2023-04-09T10:49:21;101700.03;;;12.42;100.00
36380;BME280;22411;53.016;18.632;2023-04-09T10:52:04;101702.88;;;12.67;100.00
36380;BME280;22411;53.016;18.632;2023-04-09T10:59:32;101710.78;;;12.66;100.00
36380;BME280;22411;53.016;18.632;2023-04-09T11:01:59;101704.88;;;12.48;100.00
36380;BME280;22411;53.016;18.632;2023-04-09T11:04:38;101706.78;;;12.44;100.00
36380;BME280;22411;53.016;18.632;2023-04-09T11:07:07;101701.78;;;12.41;100.00
36380;BME280;22411;53.016;18.632;2023-04-09T11:09:35;101702.53;;;12.43;100.00
36380;BME280;22411;53.016;18.632;2023-04-09T11:12:02;101698.63;;;12.36;100.00
36380;BME280;22411;53.016;18.632;2023-04-09T11:14:28;101694.41;;;12.34;100.00
36380;BME280;22411;53.016;18.632;2023-04-09T11:16:55;101693.94;;;12.27;100.00
36380;BME280;22411;53.016;18.632;2023-04-09T11:19:22;101697.13;;;12.16;100.00
36380;BME280;22411;53.016;18.632;2023-04-09T11:21:49;101702.22;;;12.18;100.00
36380;BME280;22411;53.016;18.632;2023-04-09T11:24:17;101702.97;;;12.36;100.00
36380;BME280;22411;53.016;18.632;2023-04-09T11:26:44;101692.91;;;12.45;100.00
36380;BME280;22411;53.016;18.632;2023-04-09T11:29:10;101692.53;;;12.51;100.00
36380;BME280;22411;53.016;18.632;2023-04-09T11:31:37;101695.66;;;12.72;100.00
36380;BME280;22411;53.016;18.632;2023-04-09T11:34:04;101695.69;;;12.87;100.00
36380;BME280;22411;53.016;18.632;2023-04-09T11:36:33;101700.63;;;13.20;100.00
36380;BME280;22411;53.016;18.632;2023-04-09T11:39:01;101696.38;;;13.33;100.00
36380;BME280;22411;53.016;18.632;2023-04-09T11:41:46;101697.59;;;13.42;100.00
36380;BME280;22411;53.016;18.632;2023-04-09T11:44:12;101696.81;;;13.54;100.00
36380;BME280;22411;53.016;18.632;2023-04-09T11:46:41;101692.53;;;14.08;100.00
36380;BME280;22411;53.016;18.632;2023-04-09T11:49:07;101697.22;;;15.08;100.00
36380;BME280;22411;53.016;18.632;2023-04-09T11:51:34;101688.06;;;15.89;100.00
36380;BME280;22411;53.016;18.632;2023-04-09T11:54:01;101687.72;;;16.17;100.00
36380;BME280;22411;53.016;18.632;2023-04-09T11:56:31;101696.22;;;16.67;100.00
36380;BME280;22411;53.016;18.632;2023-04-09T11:58:58;101689.53;;;16.98;100.00
36380;BME280;22411;53.016;18.632;2023-04-09T12:01:29;101693.59;;;17.25;100.00
36380;BME280;22411;53.016;18.632;2023-04-09T12:03:57;101698.94;;;17.46;100.00
36380;BME280;22411;53.016;18.632;2023-04-09T12:06:24;101692.63;;;18.14;100.00
36380;BME280;22411;53.016;18.632;2023-04-09T12:08:58;101692.16;;;18.83;100.00
36380;BME280;22411;53.016;18.632;2023-04-09T12:11:29;101693.59;;;18.97;100.00
36380;BME280;22411;53.016;18.632;2023-04-09T12:14:03;101687.28;;;18.78;100.00
36380;BME280;22411;53.016;18.632;2023-04-09T12:16:31;101688.91;;;18.38;100.00
36380;BME280;22411;53.016;18.632;2023-04-09T12:19:05;101684.19;;;17.99;100.00
36380;BME280;22411;53.016;18.632;2023-04-09T12:21:52;101690.31;;;17.66;100.00
36380;BME280;22411;53.016;18.632;2023-04-09T12:24:24;101690.94;;;17.03;100.00
36380;BME280;22411;53.016;18.632;2023-04-09T12:26:51;101685.47;;;16.48;100.00
36380;BME280;22411;53.016;18.632;2023-04-09T12:29:18;101682.88;;;16.59;100.00
36380;BME280;22411;53.016;18.632;2023-04-09T12:31:45;101684.50;;;16.49;100.00
36380;BME280;22411;53.016;18.632;2023-04-09T12:34:11;101683.44;;;16.16;100.00
36380;BME280;22411;53.016;18.632;2023-04-09T12:36:39;101679.34;;;16.01;100.00
36380;BME280;22411;53.016;18.632;2023-04-09T12:39:08;101680.91;;;16.04;100.00
36380;BME280;22411;53.016;18.632;2023-04-09T12:41:34;101674.44;;;15.97;100.00
36380;BME280;22411;53.016;18.632;2023-04-09T12:44:00;101667.63;;;15.70;100.00
36380;BME280;22411;53.016;18.632;2023-04-09T12:46:27;101675.69;;;15.54;100.00
36380;BME280;22411;53.016;18.632;2023-04-09T12:48:53;101673.66;;;15.34;100.00
36380;BME280;22411;53.016;18.632;2023-04-09T12:51:19;101678.50;;;15.14;100.00
36380;BME280;22411;53.016;18.632;2023-04-09T12:53:45;101685.19;;;14.93;100.00
36380;BME280;22411;53.016;18.632;2023-04-09T12:56:13;101678.06;;;14.70;100.00
36380;BME280;22411;53.016;18.632;2023-04-09T12:58:39;101676.91;;;14.48;100.00